Private Wetterstation Sandau
Wetterdaten: Freitag, 31.08.2012
Datum Zeit Temp. A. Feuchte A. Luftdruck Regen Wind Richtung Richtung Taupunkt Windchill
31.08.2012 00:01 17,4 C 84 % 1016,1 hPa 0,0 l/m 0,0 km/h (0 Bft) NW 315 14,7 C 17,4 C
31.08.2012 00:06 17,4 C 84 % 1015,9 hPa 0,0 l/m 0,0 km/h (0 Bft) NW 315 14,7 C 17,4 C
31.08.2012 00:11 17,3 C 84 % 1015,9 hPa 0,0 l/m 0,0 km/h (0 Bft) NW 315 14,6 C 17,3 C
31.08.2012 00:16 17,3 C 84 % 1015,8 hPa 0,0 l/m 1,4 km/h (1 Bft) NW 315 14,6 C 17,3 C
31.08.2012 00:21 17,3 C 84 % 1015,9 hPa 0,0 l/m 2,2 km/h (1 Bft) N-NW 337 14,6 C 17,3 C
31.08.2012 00:26 17,3 C 84 % 1015,8 hPa 0,0 l/m 0,0 km/h (0 Bft) N-NW 337 14,6 C 17,3 C
31.08.2012 00:31 17,3 C 84 % 1015,9 hPa 0,0 l/m 3,6 km/h (1 Bft) N-NW 337 14,6 C 17,3 C
31.08.2012 00:36 17,2 C 84 % 1015,7 hPa 0,0 l/m 7,2 km/h (2 Bft) N-NW 337 14,5 C 17,2 C
31.08.2012 00:41 17,2 C 84 % 1015,7 hPa 0,0 l/m 0,0 km/h (0 Bft) N-NO 22 14,5 C 17,2 C
31.08.2012 00:46 17,2 C 84 % 1015,7 hPa 0,0 l/m 0,0 km/h (0 Bft) N-NO 22 14,5 C 17,2 C
31.08.2012 00:51 17,1 C 84 % 1015,8 hPa 0,0 l/m 6,8 km/h (2 Bft) N-NW 337 14,4 C 17,1 C
31.08.2012 00:56 17,1 C 84 % 1015,8 hPa 0,0 l/m 2,2 km/h (1 Bft) N-NO 22 14,4 C 17,1 C
31.08.2012 01:01 17,0 C 84 % 1015,7 hPa 0,0 l/m 3,6 km/h (1 Bft) N-NO 22 14,3 C 17,0 C
31.08.2012 01:06 16,9 C 85 % 1015,6 hPa 0,0 l/m 3,2 km/h (1 Bft) N-NO 22 14,4 C 16,9 C
31.08.2012 01:11 16,9 C 85 % 1015,7 hPa 0,0 l/m 4,7 km/h (1 Bft) N-NO 22 14,4 C 16,9 C
31.08.2012 01:16 16,8 C 85 % 1015,7 hPa 0,0 l/m 6,1 km/h (2 Bft) N-NW 337 14,3 C 16,8 C
31.08.2012 01:21 16,7 C 85 % 1015,7 hPa 0,0 l/m 8,3 km/h (2 Bft) N 360 14,2 C 16,7 C
31.08.2012 01:26 16,6 C 85 % 1015,7 hPa 0,0 l/m 2,2 km/h (1 Bft) N-NO 22 14,1 C 16,6 C
31.08.2012 01:31 16,5 C 85 % 1015,3 hPa 0,0 l/m 5,4 km/h (1 Bft) N-NO 22 14,0 C 16,5 C
31.08.2012 01:36 16,4 C 86 % 1015,2 hPa 0,0 l/m 3,6 km/h (1 Bft) N-NO 22 14,1 C 16,4 C
31.08.2012 01:41 16,4 C 86 % 1015,2 hPa 0,5 l/m 6,1 km/h (2 Bft) N 360 14,1 C 16,4 C
31.08.2012 01:46 16,3 C 86 % 1015,3 hPa 0,0 l/m 5,0 km/h (1 Bft) N 360 14,0 C 16,3 C
31.08.2012 01:51 16,3 C 86 % 1015,5 hPa 0,0 l/m 5,4 km/h (1 Bft) N-NO 22 14,0 C 16,3 C
31.08.2012 01:56 16,3 C 86 % 1015,6 hPa 0,0 l/m 2,5 km/h (1 Bft) N 360 14,0 C 16,3 C
31.08.2012 02:01 16,2 C 86 % 1015,6 hPa 0,0 l/m 4,3 km/h (1 Bft) N 360 13,9 C 16,2 C
31.08.2012 02:06 16,2 C 86 % 1015,3 hPa 0,0 l/m 4,0 km/h (1 Bft) N-NW 337 13,9 C 16,2 C
31.08.2012 02:11 16,1 C 86 % 1015,4 hPa 0,0 l/m 7,9 km/h (2 Bft) N-NO 22 13,8 C 16,1 C
31.08.2012 02:16 16,1 C 86 % 1015,4 hPa 0,0 l/m 4,0 km/h (1 Bft) N-NO 22 13,8 C 16,1 C
31.08.2012 02:21 16,1 C 86 % 1015,3 hPa 0,0 l/m 2,2 km/h (1 Bft) N-NO 22 13,8 C 16,1 C
31.08.2012 02:26 16,0 C 86 % 1015,4 hPa 0,0 l/m 2,5 km/h (1 Bft) N-NO 22 13,7 C 16,0 C
31.08.2012 02:31 15,9 C 86 % 1015,4 hPa 0,0 l/m 0,0 km/h (0 Bft) O-NO 67 13,6 C 15,9 C
31.08.2012 02:36 15,9 C 87 % 1015,5 hPa 0,0 l/m 1,8 km/h (1 Bft) N-NO 22 13,7 C 15,9 C
31.08.2012 02:41 15,9 C 87 % 1015,5 hPa 0,0 l/m 0,0 km/h (0 Bft) N 360 13,7 C 15,9 C
31.08.2012 02:46 15,9 C 87 % 1015,1 hPa 0,0 l/m 2,5 km/h (1 Bft) N 360 13,7 C 15,9 C
31.08.2012 02:51 15,9 C 87 % 1015,3 hPa 0,0 l/m 1,4 km/h (1 Bft) N 360 13,7 C 15,9 C
31.08.2012 02:56 15,9 C 87 % 1015,4 hPa 0,0 l/m 0,0 km/h (0 Bft) N 360 13,7 C 15,9 C
31.08.2012 03:01 15,9 C 87 % 1015,5 hPa 0,0 l/m 2,2 km/h (1 Bft) W-SW 247 13,7 C 15,9 C
31.08.2012 03:06 15,9 C 87 % 1015,5 hPa 0,0 l/m 5,0 km/h (1 Bft) W-SW 247 13,7 C 15,9 C
31.08.2012 03:11 16,0 C 87 % 1015,7 hPa 1,6 l/m 3,2 km/h (1 Bft) N-NO 22 13,8 C 16,0 C
31.08.2012 03:16 15,9 C 87 % 1015,5 hPa 1,6 l/m 2,9 km/h (1 Bft) N-NO 22 13,7 C 15,9 C
31.08.2012 03:21 15,9 C 88 % 1015,6 hPa 0,0 l/m 0,0 km/h (0 Bft) NO 45 13,9 C 15,9 C
31.08.2012 03:26 15,9 C 88 % 1015,5 hPa 0,0 l/m 2,5 km/h (1 Bft) NO 45 13,9 C 15,9 C
31.08.2012 03:31 15,9 C 87 % 1015,6 hPa 0,5 l/m 2,2 km/h (1 Bft) O-NO 67 13,7 C 15,9 C
31.08.2012 03:36 15,8 C 87 % 1015,4 hPa 0,0 l/m 4,0 km/h (1 Bft) O-NO 67 13,6 C 15,8 C
31.08.2012 03:41 15,8 C 88 % 1015,4 hPa 0,0 l/m 0,0 km/h (0 Bft) O-NO 67 13,8 C 15,8 C
31.08.2012 03:46 15,8 C 88 % 1015,2 hPa 0,0 l/m 0,0 km/h (0 Bft) O-NO 67 13,8 C 15,8 C
31.08.2012 03:51 15,8 C 88 % 1015,3 hPa 0,0 l/m 1,8 km/h (1 Bft) NO 45 13,8 C 15,8 C
31.08.2012 03:56 15,8 C 88 % 1015,4 hPa 0,0 l/m 2,9 km/h (1 Bft) NO 45 13,8 C 15,8 C
31.08.2012 04:01 15,6 C 88 % 1015,3 hPa 0,0 l/m 1,8 km/h (1 Bft) NO 45 13,6 C 15,6 C
31.08.2012 04:06 15,6 C 88 % 1015,1 hPa 0,0 l/m 2,2 km/h (1 Bft) NO 45 13,6 C 15,6 C
31.08.2012 04:11 15,6 C 88 % 1015,2 hPa 0,0 l/m 0,0 km/h (0 Bft) NO 45 13,6 C 15,6 C
31.08.2012 04:16 15,5 C 89 % 1015,3 hPa 0,0 l/m 0,0 km/h (0 Bft) NO 45 13,7 C 15,5 C
31.08.2012 04:21 15,4 C 89 % 1015,2 hPa 0,0 l/m 0,0 km/h (0 Bft) NO 45 13,6 C 15,4 C
31.08.2012 04:26 15,4 C 89 % 1015,1 hPa 0,0 l/m 0,0 km/h (0 Bft) NO 45 13,6 C 15,4 C
31.08.2012 04:31 15,4 C 89 % 1015,0 hPa 0,0 l/m 2,2 km/h (1 Bft) NO 45 13,6 C 15,4 C
31.08.2012 04:36 15,4 C 89 % 1015,0 hPa 0,5 l/m 0,0 km/h (0 Bft) N-NW 337 13,6 C 15,4 C
31.08.2012 04:41 15,4 C 89 % 1014,9 hPa 0,0 l/m 3,6 km/h (1 Bft) W-NW 292 13,6 C 15,4 C
31.08.2012 04:46 15,4 C 89 % 1015,0 hPa 0,0 l/m 0,0 km/h (0 Bft) W-NW 292 13,6 C 15,4 C
31.08.2012 04:51 15,4 C 89 % 1015,1 hPa 0,0 l/m 2,9 km/h (1 Bft) W-NW 292 13,6 C 15,4 C
31.08.2012 04:56 15,4 C 89 % 1015,3 hPa 0,0 l/m 2,9 km/h (1 Bft) W-NW 292 13,6 C 15,4 C
31.08.2012 05:01 15,3 C 89 % 1015,1 hPa 0,0 l/m 2,5 km/h (1 Bft) W-NW 292 13,5 C 15,3 C
31.08.2012 05:06 15,3 C 90 % 1015,1 hPa 0,0 l/m 0,0 km/h (0 Bft) W-NW 292 13,7 C 15,3 C
31.08.2012 05:11 15,3 C 90 % 1015,2 hPa 0,0 l/m 0,0 km/h (0 Bft) N-NW 337 13,7 C 15,3 C
31.08.2012 05:16 15,3 C 90 % 1015,3 hPa 0,0 l/m 0,0 km/h (0 Bft) N-NW 337 13,7 C 15,3 C
31.08.2012 05:21 15,3 C 90 % 1015,5 hPa 0,0 l/m 2,9 km/h (1 Bft) NW 315 13,7 C 15,3 C
31.08.2012 05:26 15,3 C 90 % 1015,7 hPa 0,0 l/m 3,2 km/h (1 Bft) W 270 13,7 C 15,3 C
31.08.2012 05:31 15,2 C 90 % 1015,5 hPa 0,0 l/m 0,0 km/h (0 Bft) W-NW 292 13,6 C 15,2 C
31.08.2012 05:36 15,2 C 90 % 1015,3 hPa 0,0 l/m 1,4 km/h (1 Bft) W-NW 292 13,6 C 15,2 C
31.08.2012 05:41 15,1 C 90 % 1015,2 hPa 0,0 l/m 0,0 km/h (0 Bft) W 270 13,5 C 15,1 C
31.08.2012 05:46 15,1 C 90 % 1015,3 hPa 0,0 l/m 2,2 km/h (1 Bft) W-NW 292 13,5 C 15,1 C
31.08.2012 05:51 15,0 C 90 % 1015,4 hPa 0,0 l/m 1,4 km/h (1 Bft) W 270 13,4 C 15,0 C
31.08.2012 05:56 15,0 C 90 % 1015,4 hPa 0,0 l/m 0,0 km/h (0 Bft) W-NW 292 13,4 C 15,0 C
31.08.2012 06:01 14,9 C 90 % 1015,7 hPa 0,0 l/m 3,2 km/h (1 Bft) W-NW 292 13,3 C 14,9 C
31.08.2012 06:06 15,0 C 90 % 1015,6 hPa 0,0 l/m 0,0 km/h (0 Bft) W-NW 292 13,4 C 15,0 C
31.08.2012 06:11 15,0 C 90 % 1015,5 hPa 0,0 l/m 2,5 km/h (1 Bft) N-NW 337 13,4 C 15,0 C
31.08.2012 06:16 15,0 C 90 % 1015,4 hPa 0,0 l/m 0,0 km/h (0 Bft) N-NW 337 13,4 C 15,0 C
31.08.2012 06:21 15,0 C 90 % 1015,5 hPa 0,0 l/m 0,0 km/h (0 Bft) N-NW 337 13,4 C 15,0 C
31.08.2012 06:26 15,1 C 90 % 1015,4 hPa 0,0 l/m 2,5 km/h (1 Bft) NW 315 13,5 C 15,1 C
31.08.2012 06:31 15,0 C 90 % 1015,3 hPa 0,0 l/m 0,0 km/h (0 Bft) W-NW 292 13,4 C 15,0 C
31.08.2012 06:36 15,1 C 90 % 1015,3 hPa 0,0 l/m 0,0 km/h (0 Bft) N-NW 337 13,5 C 15,1 C
31.08.2012 06:41 15,0 C 90 % 1015,4 hPa 0,0 l/m 3,6 km/h (1 Bft) W-NW 292 13,4 C 15,0 C
31.08.2012 06:46 14,9 C 90 % 1015,4 hPa 0,0 l/m 0,0 km/h (0 Bft) W-NW 292 13,3 C 14,9 C
31.08.2012 06:51 14,9 C 90 % 1015,5 hPa 0,0 l/m 0,0 km/h (0 Bft) W-NW 292 13,3 C 14,9 C
31.08.2012 06:56 14,9 C 90 % 1015,5 hPa 0,0 l/m 1,4 km/h (1 Bft) NW 315 13,3 C 14,9 C
31.08.2012 07:01 15,0 C 90 % 1015,6 hPa 0,0 l/m 1,1 km/h (1 Bft) NW 315 13,4 C 15,0 C
31.08.2012 07:06 15,1 C 90 % 1015,6 hPa 0,0 l/m 0,0 km/h (0 Bft) W 270 13,5 C 15,1 C
31.08.2012 07:11 15,1 C 90 % 1015,6 hPa 0,0 l/m 0,0 km/h (0 Bft) W-NW 292 13,5 C 15,1 C
31.08.2012 07:16 15,1 C 90 % 1015,6 hPa 0,0 l/m 2,5 km/h (1 Bft) W-NW 292 13,5 C 15,1 C
31.08.2012 07:21 15,1 C 90 % 1015,6 hPa 0,0 l/m 0,0 km/h (0 Bft) W-NW 292 13,5 C 15,1 C
31.08.2012 07:26 15,1 C 90 % 1015,5 hPa 0,0 l/m 2,2 km/h (1 Bft) NW 315 13,5 C 15,1 C
31.08.2012 07:31 15,1 C 90 % 1015,6 hPa 0,0 l/m 2,2 km/h (1 Bft) NW 315 13,5 C 15,1 C
31.08.2012 07:36 15,1 C 90 % 1015,6 hPa 0,0 l/m 4,0 km/h (1 Bft) N 360 13,5 C 15,1 C
31.08.2012 07:41 14,9 C 90 % 1015,4 hPa 0,0 l/m 6,5 km/h (2 Bft) N 360 13,3 C 14,9 C
31.08.2012 07:46 14,9 C 90 % 1015,4 hPa 0,0 l/m 2,2 km/h (1 Bft) N 360 13,3 C 14,9 C
31.08.2012 07:51 14,9 C 90 % 1015,4 hPa 0,0 l/m 0,0 km/h (0 Bft) N 360 13,3 C 14,9 C
31.08.2012 07:56 14,9 C 90 % 1015,5 hPa 0,0 l/m 1,4 km/h (1 Bft) N-NW 337 13,3 C 14,9 C
31.08.2012 08:01 14,9 C 90 % 1015,4 hPa 0,0 l/m 2,2 km/h (1 Bft) N-NO 22 13,3 C 14,9 C
31.08.2012 08:06 14,9 C 90 % 1015,5 hPa 0,0 l/m 0,0 km/h (0 Bft) N 360 13,3 C 14,9 C
31.08.2012 08:11 14,9 C 91 % 1015,5 hPa 0,0 l/m 0,0 km/h (0 Bft) N 360 13,4 C 14,9 C
31.08.2012 08:16 15,1 C 91 % 1015,4 hPa 0,0 l/m 2,2 km/h (1 Bft) NW 315 13,6 C 15,1 C
31.08.2012 08:21 15,2 C 91 % 1015,5 hPa 0,0 l/m 2,5 km/h (1 Bft) N-NO 22 13,7 C 15,2 C
31.08.2012 08:26 15,2 C 91 % 1015,4 hPa 0,0 l/m 0,0 km/h (0 Bft) N-NO 22 13,7 C 15,2 C
31.08.2012 08:31 15,1 C 91 % 1015,4 hPa 0,0 l/m 3,6 km/h (1 Bft) N 360 13,6 C 15,1 C
31.08.2012 08:36 15,3 C 91 % 1015,6 hPa 0,0 l/m 0,0 km/h (0 Bft) NO 45 13,8 C 15,3 C
31.08.2012 08:41 15,3 C 91 % 1015,7 hPa 0,0 l/m 6,1 km/h (2 Bft) N 360 13,8 C 15,3 C
31.08.2012 08:46 15,3 C 91 % 1015,6 hPa 0,0 l/m 2,5 km/h (1 Bft) N 360 13,8 C 15,3 C
31.08.2012 08:51 15,3 C 91 % 1015,6 hPa 0,0 l/m 0,0 km/h (0 Bft) N-NO 22 13,8 C 15,3 C
31.08.2012 08:56 15,4 C 91 % 1015,5 hPa 0,0 l/m 2,5 km/h (1 Bft) N 360 13,9 C 15,4 C
31.08.2012 09:01 15,5 C 90 % 1015,6 hPa 0,0 l/m 4,3 km/h (1 Bft) N-NW 337 13,9 C 15,5 C
31.08.2012 09:06 15,6 C 90 % 1015,6 hPa 0,0 l/m 3,2 km/h (1 Bft) N-NO 22 14,0 C 15,6 C
31.08.2012 09:11 15,8 C 90 % 1015,7 hPa 0,0 l/m 4,3 km/h (1 Bft) NW 315 14,2 C 15,8 C
31.08.2012 09:16 15,8 C 90 % 1015,7 hPa 0,0 l/m 2,9 km/h (1 Bft) NW 315 14,2 C 15,8 C
31.08.2012 09:21 15,9 C 90 % 1015,7 hPa 0,0 l/m 0,0 km/h (0 Bft) N-NO 22 14,3 C 15,9 C
31.08.2012 09:26 16,0 C 89 % 1015,7 hPa 0,0 l/m 4,7 km/h (1 Bft) N 360 14,2 C 16,0 C
31.08.2012 09:31 16,0 C 89 % 1015,7 hPa 0,0 l/m 3,6 km/h (1 Bft) NO 45 14,2 C 16,0 C
31.08.2012 09:36 15,9 C 88 % 1015,7 hPa 0,0 l/m 5,4 km/h (1 Bft) N 360 13,9 C 15,9 C
31.08.2012 09:41 16,0 C 89 % 1015,7 hPa 0,0 l/m 2,2 km/h (1 Bft) N 360 14,2 C 16,0 C
31.08.2012 09:46 16,1 C 89 % 1015,7 hPa 0,0 l/m 0,0 km/h (0 Bft) N 360 14,3 C 16,1 C
31.08.2012 09:51 16,3 C 89 % 1015,8 hPa 0,0 l/m 0,0 km/h (0 Bft) W-NW 292 14,5 C 16,3 C
31.08.2012 09:56 16,4 C 88 % 1015,8 hPa 0,0 l/m 3,2 km/h (1 Bft) N-NW 337 14,4 C 16,4 C
31.08.2012 10:01 16,5 C 88 % 1015,7 hPa 0,0 l/m 2,2 km/h (1 Bft) NO 45 14,5 C 16,5 C
31.08.2012 10:06 16,6 C 88 % 1015,8 hPa 0,0 l/m 3,2 km/h (1 Bft) NW 315 14,6 C 16,6 C
31.08.2012 10:11 16,8 C 88 % 1015,7 hPa 0,0 l/m 1,8 km/h (1 Bft) NW 315 14,8 C 16,8 C
31.08.2012 10:16 16,9 C 88 % 1015,9 hPa 0,0 l/m 2,2 km/h (1 Bft) W-NW 292 14,9 C 16,9 C
31.08.2012 10:21 17,1 C 87 % 1016,0 hPa 0,0 l/m 2,9 km/h (1 Bft) NO 45 14,9 C 17,1 C
31.08.2012 10:26 17,2 C 87 % 1016,0 hPa 0,0 l/m 5,8 km/h (2 Bft) NW 315 15,0 C 17,2 C
31.08.2012 10:31 17,3 C 86 % 1016,0 hPa 0,0 l/m 4,7 km/h (1 Bft) N-NW 337 14,9 C 17,3 C
31.08.2012 10:36 17,5 C 86 % 1016,0 hPa 0,0 l/m 4,7 km/h (1 Bft) W-NW 292 15,1 C 17,5 C
31.08.2012 10:41 17,6 C 86 % 1016,0 hPa 0,0 l/m 7,9 km/h (2 Bft) W 270 15,2 C 17,6 C
31.08.2012 10:46 17,7 C 85 % 1016,1 hPa 0,0 l/m 1,8 km/h (1 Bft) W 270 15,1 C 17,7 C
31.08.2012 10:51 17,8 C 85 % 1016,1 hPa 0,0 l/m 5,8 km/h (2 Bft) NW 315 15,2 C 17,8 C
31.08.2012 10:56 18,0 C 84 % 1016,1 hPa 0,0 l/m 4,0 km/h (1 Bft) W-NW 292 15,3 C 18,0 C
31.08.2012 11:01 18,2 C 84 % 1016,3 hPa 0,0 l/m 4,7 km/h (1 Bft) W 270 15,4 C 18,2 C
31.08.2012 11:06 18,4 C 83 % 1016,3 hPa 0,0 l/m 4,7 km/h (1 Bft) W 270 15,5 C 18,4 C
31.08.2012 11:11 18,4 C 83 % 1016,3 hPa 0,0 l/m 8,6 km/h (2 Bft) NW 315 15,5 C 18,4 C
31.08.2012 11:16 18,4 C 82 % 1016,3 hPa 0,0 l/m 3,2 km/h (1 Bft) W 270 15,3 C 18,4 C
31.08.2012 11:21 18,5 C 82 % 1016,4 hPa 0,0 l/m 5,4 km/h (1 Bft) W-SW 247 15,4 C 18,5 C
31.08.2012 11:26 18,6 C 82 % 1016,3 hPa 0,0 l/m 3,6 km/h (1 Bft) W-NW 292 15,5 C 18,6 C
31.08.2012 11:31 18,8 C 81 % 1016,3 hPa 0,0 l/m 4,0 km/h (1 Bft) W-NW 292 15,5 C 18,8 C
31.08.2012 11:36 18,8 C 80 % 1016,3 hPa 0,0 l/m 5,0 km/h (1 Bft) W 270 15,3 C 18,8 C
31.08.2012 11:41 18,9 C 80 % 1016,3 hPa 0,0 l/m 4,0 km/h (1 Bft) NW 315 15,4 C 18,9 C
31.08.2012 11:46 18,7 C 79 % 1016,1 hPa 0,0 l/m 2,5 km/h (1 Bft) NW 315 15,0 C 18,7 C
31.08.2012 11:51 18,6 C 79 % 1016,3 hPa 0,0 l/m 11,5 km/h (2 Bft) W-NW 292 14,9 C 18,6 C
31.08.2012 11:56 18,8 C 80 % 1016,3 hPa 0,0 l/m 3,2 km/h (1 Bft) N-NO 22 15,3 C 18,8 C
31.08.2012 12:01 18,8 C 79 % 1016,2 hPa 0,0 l/m 5,0 km/h (1 Bft) W 270 15,1 C 18,8 C
31.08.2012 12:06 18,8 C 79 % 1016,4 hPa 0,0 l/m 11,9 km/h (2 Bft) W-NW 292 15,1 C 18,8 C
31.08.2012 12:11 18,9 C 79 % 1016,4 hPa 0,0 l/m 1,4 km/h (1 Bft) N-NO 22 15,2 C 18,9 C
31.08.2012 12:16 18,8 C 78 % 1016,6 hPa 0,0 l/m 2,2 km/h (1 Bft) N-NW 337 14,9 C 18,8 C
31.08.2012 12:21 18,9 C 78 % 1016,4 hPa 0,0 l/m 0,0 km/h (0 Bft) NO 45 15,0 C 18,9 C
31.08.2012 12:26 19,0 C 77 % 1016,3 hPa 0,0 l/m 3,2 km/h (1 Bft) NW 315 14,9 C 19,0 C
31.08.2012 12:31 19,2 C 77 % 1016,0 hPa 0,0 l/m 2,2 km/h (1 Bft) NO 45 15,1 C 19,2 C
31.08.2012 12:36 19,2 C 77 % 1016,3 hPa 0,0 l/m 0,0 km/h (0 Bft) NW 315 15,1 C 19,2 C
31.08.2012 12:41 19,1 C 76 % 1016,3 hPa 0,0 l/m 5,8 km/h (2 Bft) N-NW 337 14,8 C 19,1 C
31.08.2012 12:46 18,9 C 74 % 1016,2 hPa 0,0 l/m 6,1 km/h (2 Bft) N-NO 22 14,2 C 18,9 C
31.08.2012 12:51 18,9 C 76 % 1016,2 hPa 0,0 l/m 5,8 km/h (2 Bft) NO 45 14,6 C 18,9 C
31.08.2012 12:56 19,1 C 75 % 1016,1 hPa 0,0 l/m 10,1 km/h (2 Bft) W-NW 292 14,6 C 19,1 C
31.08.2012 13:01 19,3 C 75 % 1016,3 hPa 0,0 l/m 8,6 km/h (2 Bft) NW 315 14,8 C 19,3 C
31.08.2012 13:06 19,5 C 75 % 1016,4 hPa 0,0 l/m 2,9 km/h (1 Bft) N-NW 337 14,9 C 19,5 C
31.08.2012 13:11 19,6 C 73 % 1016,2 hPa 0,0 l/m 10,4 km/h (2 Bft) N-NO 22 14,6 C 19,6 C
31.08.2012 13:16 19,4 C 74 % 1016,4 hPa 0,0 l/m 8,6 km/h (2 Bft) NW 315 14,6 C 19,4 C
31.08.2012 13:21 19,6 C 74 % 1016,4 hPa 0,0 l/m 5,0 km/h (1 Bft) N-NW 337 14,8 C 19,6 C
31.08.2012 13:26 19,8 C 74 % 1016,5 hPa 0,0 l/m 4,0 km/h (1 Bft) W-NW 292 15,0 C 19,8 C
31.08.2012 13:31 19,9 C 73 % 1016,6 hPa 0,0 l/m 4,3 km/h (1 Bft) W-NW 292 14,9 C 19,9 C
31.08.2012 13:36 19,9 C 73 % 1016,7 hPa 0,0 l/m 4,7 km/h (1 Bft) W-SW 247 14,9 C 19,9 C
31.08.2012 13:41 19,9 C 72 % 1016,4 hPa 0,0 l/m 1,4 km/h (1 Bft) NO 45 14,7 C 19,9 C
31.08.2012 13:46 19,9 C 72 % 1016,5 hPa 0,0 l/m 3,6 km/h (1 Bft) W 270 14,7 C 19,9 C
31.08.2012 13:51 20,1 C 72 % 1016,8 hPa 0,0 l/m 3,2 km/h (1 Bft) W-NW 292 14,9 C 20,1 C
31.08.2012 13:56 20,1 C 72 % 1016,7 hPa 0,0 l/m 2,9 km/h (1 Bft) W-SW 247 14,9 C 20,1 C
31.08.2012 14:01 20,2 C 71 % 1016,7 hPa 0,0 l/m 5,8 km/h (2 Bft) W-NW 292 14,8 C 20,2 C
31.08.2012 14:06 20,3 C 70 % 1016,7 hPa 0,0 l/m 2,9 km/h (1 Bft) N-NO 22 14,6 C 20,3 C
31.08.2012 14:11 20,2 C 70 % 1016,7 hPa 0,0 l/m 5,4 km/h (1 Bft) NW 315 14,5 C 20,2 C
31.08.2012 14:16 20,4 C 70 % 1016,8 hPa 0,0 l/m 6,1 km/h (2 Bft) N 360 14,7 C 20,4 C
31.08.2012 14:21 20,1 C 68 % 1016,8 hPa 0,0 l/m 5,0 km/h (1 Bft) W-NW 292 14,0 C 20,1 C
31.08.2012 14:26 20,2 C 69 % 1016,8 hPa 0,0 l/m 4,7 km/h (1 Bft) N-NW 337 14,3 C 20,2 C
31.08.2012 14:31 20,4 C 68 % 1016,6 hPa 0,0 l/m 1,4 km/h (1 Bft) NW 315 14,3 C 20,4 C
31.08.2012 14:36 20,5 C 68 % 1016,7 hPa 0,0 l/m 6,5 km/h (2 Bft) NW 315 14,4 C 20,5 C
31.08.2012 14:41 20,5 C 66 % 1016,7 hPa 0,0 l/m 6,1 km/h (2 Bft) W-NW 292 13,9 C 20,5 C
31.08.2012 14:46 20,6 C 66 % 1016,9 hPa 0,0 l/m 2,5 km/h (1 Bft) NW 315 14,0 C 20,6 C
31.08.2012 14:51 20,6 C 65 % 1017,0 hPa 0,0 l/m 7,6 km/h (2 Bft) W-NW 292 13,8 C 20,6 C
31.08.2012 14:56 20,7 C 65 % 1017,0 hPa 0,0 l/m 7,2 km/h (2 Bft) W 270 13,9 C 20,7 C
31.08.2012 15:01 20,8 C 65 % 1017,0 hPa 0,0 l/m 6,1 km/h (2 Bft) NW 315 14,0 C 20,8 C
31.08.2012 15:06 20,9 C 65 % 1017,1 hPa 0,0 l/m 6,8 km/h (2 Bft) NW 315 14,1 C 20,9 C
31.08.2012 15:11 20,8 C 65 % 1016,9 hPa 0,0 l/m 1,1 km/h (1 Bft) N-NO 22 14,0 C 20,8 C
31.08.2012 15:16 20,7 C 65 % 1016,8 hPa 0,0 l/m 7,2 km/h (2 Bft) NW 315 13,9 C 20,7 C
31.08.2012 15:21 20,8 C 64 % 1016,8 hPa 0,0 l/m 4,7 km/h (1 Bft) NW 315 13,7 C 20,8 C
31.08.2012 15:26 20,9 C 64 % 1016,8 hPa 0,0 l/m 0,0 km/h (0 Bft) NW 315 13,8 C 20,9 C
31.08.2012 15:31 21,1 C 64 % 1016,8 hPa 0,0 l/m 9,4 km/h (2 Bft) NW 315 14,0 C 21,1 C
31.08.2012 15:36 21,2 C 63 % 1016,8 hPa 0,0 l/m 9,0 km/h (2 Bft) NW 315 13,9 C 21,2 C
31.08.2012 15:41 21,2 C 63 % 1017,0 hPa 0,0 l/m 5,0 km/h (1 Bft) NW 315 13,9 C 21,2 C
31.08.2012 15:46 21,3 C 61 % 1016,7 hPa 0,0 l/m 2,2 km/h (1 Bft) N-NO 22 13,5 C 21,3 C
31.08.2012 15:51 21,3 C 62 % 1016,7 hPa 0,0 l/m 4,0 km/h (1 Bft) N-NW 337 13,7 C 21,3 C
31.08.2012 15:56 21,3 C 63 % 1016,8 hPa 0,0 l/m 1,8 km/h (1 Bft) W-NW 292 14,0 C 21,3 C
31.08.2012 16:01 21,5 C 61 % 1017,0 hPa 0,0 l/m 7,2 km/h (2 Bft) W-NW 292 13,7 C 21,5 C
31.08.2012 16:06 21,6 C 60 % 1016,8 hPa 0,0 l/m 0,0 km/h (0 Bft) N-NW 337 13,5 C 21,6 C
31.08.2012 16:11 21,8 C 60 % 1016,8 hPa 0,0 l/m 2,2 km/h (1 Bft) N-NO 22 13,7 C 21,8 C
31.08.2012 16:16 21,8 C 60 % 1016,8 hPa 0,0 l/m 0,0 km/h (0 Bft) W-NW 292 13,7 C 21,8 C
31.08.2012 16:21 21,8 C 60 % 1016,7 hPa 0,0 l/m 6,8 km/h (2 Bft) N-NO 22 13,7 C 21,8 C
31.08.2012 16:26 21,6 C 59 % 1016,7 hPa 0,0 l/m 2,5 km/h (1 Bft) N-NW 337 13,2 C 21,6 C
31.08.2012 16:31 21,5 C 59 % 1016,7 hPa 0,0 l/m 5,4 km/h (1 Bft) N-NO 22 13,1 C 21,5 C
31.08.2012 16:36 21,3 C 59 % 1016,8 hPa 0,0 l/m 4,0 km/h (1 Bft) N-NO 22 13,0 C 21,3 C
31.08.2012 16:41 21,2 C 59 % 1016,8 hPa 0,0 l/m 0,0 km/h (0 Bft) O-NO 67 12,9 C 21,2 C
31.08.2012 16:46 21,3 C 59 % 1016,9 hPa 0,0 l/m 7,6 km/h (2 Bft) N 360 13,0 C 21,3 C
31.08.2012 16:51 21,1 C 58 % 1017,0 hPa 0,0 l/m 8,6 km/h (2 Bft) N-NW 337 12,5 C 21,1 C
31.08.2012 16:56 21,1 C 59 % 1017,1 hPa 0,0 l/m 2,9 km/h (1 Bft) N 360 12,8 C 21,1 C
31.08.2012 17:01 21,1 C 58 % 1017,2 hPa 0,0 l/m 2,2 km/h (1 Bft) NO 45 12,5 C 21,1 C
31.08.2012 17:06 21,3 C 58 % 1017,3 hPa 0,0 l/m 2,9 km/h (1 Bft) N-NO 22 12,7 C 21,3 C
31.08.2012 17:11 21,2 C 58 % 1017,4 hPa 0,0 l/m 2,5 km/h (1 Bft) N 360 12,6 C 21,2 C
31.08.2012 17:16 21,2 C 58 % 1017,5 hPa 0,0 l/m 2,2 km/h (1 Bft) N-NW 337 12,6 C 21,2 C
31.08.2012 17:21 21,2 C 58 % 1017,6 hPa 0,0 l/m 4,0 km/h (1 Bft) N-NO 22 12,6 C 21,2 C
31.08.2012 17:26 21,1 C 58 % 1017,6 hPa 0,0 l/m 2,5 km/h (1 Bft) NW 315 12,5 C 21,1 C
31.08.2012 17:31 20,9 C 58 % 1017,6 hPa 0,0 l/m 4,0 km/h (1 Bft) N 360 12,3 C 20,9 C
31.08.2012 17:36 20,8 C 59 % 1017,6 hPa 0,0 l/m 7,6 km/h (2 Bft) N 360 12,5 C 20,8 C
31.08.2012 17:41 20,5 C 60 % 1017,6 hPa 0,0 l/m 6,1 km/h (2 Bft) N-NO 22 12,5 C 20,5 C
31.08.2012 17:46 20,3 C 60 % 1017,6 hPa 0,0 l/m 3,2 km/h (1 Bft) NO 45 12,3 C 20,3 C
31.08.2012 17:51 19,8 C 59 % 1017,8 hPa 0,0 l/m 18,7 km/h (3 Bft) NO 45 11,6 C 19,8 C
31.08.2012 17:56 19,2 C 62 % 1017,9 hPa 0,0 l/m 8,6 km/h (2 Bft) O-NO 67 11,7 C 19,2 C
31.08.2012 18:01 18,8 C 64 % 1017,9 hPa 0,0 l/m 4,7 km/h (1 Bft) N 360 11,8 C 18,8 C
31.08.2012 18:06 18,6 C 65 % 1018,0 hPa 0,0 l/m 7,2 km/h (2 Bft) NO 45 11,9 C 18,6 C
31.08.2012 18:11 18,5 C 66 % 1018,1 hPa 0,0 l/m 7,9 km/h (2 Bft) N 360 12,0 C 18,5 C
31.08.2012 18:16 18,4 C 68 % 1017,9 hPa 0,0 l/m 1,8 km/h (1 Bft) N-NO 22 12,4 C 18,4 C
31.08.2012 18:21 18,4 C 69 % 1017,9 hPa 0,0 l/m 7,6 km/h (2 Bft) O 90 12,6 C 18,4 C
31.08.2012 18:26 18,4 C 70 % 1017,9 hPa 0,0 l/m 6,8 km/h (2 Bft) N 360 12,8 C 18,4 C
31.08.2012 18:31 18,3 C 71 % 1018,0 hPa 0,0 l/m 3,6 km/h (1 Bft) N-NO 22 12,9 C 18,3 C
31.08.2012 18:36 18,3 C 71 % 1018,2 hPa 0,0 l/m 5,0 km/h (1 Bft) N 360 12,9 C 18,3 C
31.08.2012 18:41 18,3 C 71 % 1018,2 hPa 0,0 l/m 2,2 km/h (1 Bft) N 360 12,9 C 18,3 C
31.08.2012 18:46 18,3 C 72 % 1018,3 hPa 0,0 l/m 3,6 km/h (1 Bft) N-NO 22 13,2 C 18,3 C
31.08.2012 18:51 18,3 C 72 % 1018,5 hPa 0,0 l/m 7,6 km/h (2 Bft) N 360 13,2 C 18,3 C
31.08.2012 18:56 18,1 C 72 % 1018,4 hPa 0,0 l/m 11,2 km/h (2 Bft) N-NO 22 13,0 C 18,1 C
31.08.2012 19:01 17,9 C 72 % 1018,4 hPa 0,0 l/m 4,0 km/h (1 Bft) N 360 12,8 C 17,9 C
31.08.2012 19:06 17,9 C 72 % 1018,5 hPa 0,0 l/m 5,8 km/h (2 Bft) N-NO 22 12,8 C 17,9 C
31.08.2012 19:11 17,8 C 70 % 1018,6 hPa 0,0 l/m 2,5 km/h (1 Bft) O-NO 67 12,3 C 17,8 C
31.08.2012 19:16 17,6 C 70 % 1018,6 hPa 0,0 l/m 5,4 km/h (1 Bft) N 360 12,1 C 17,6 C
31.08.2012 19:21 17,6 C 70 % 1018,7 hPa 0,0 l/m 1,8 km/h (1 Bft) N-NO 22 12,1 C 17,6 C
31.08.2012 19:26 17,5 C 70 % 1018,7 hPa 0,0 l/m 4,3 km/h (1 Bft) N-NO 22 12,0 C 17,5 C
31.08.2012 19:31 17,4 C 70 % 1018,6 hPa 0,0 l/m 3,2 km/h (1 Bft) N 360 11,9 C 17,4 C
31.08.2012 19:36 17,4 C 70 % 1018,8 hPa 0,0 l/m 3,6 km/h (1 Bft) N-NO 22 11,9 C 17,4 C
31.08.2012 19:41 17,3 C 70 % 1018,9 hPa 0,0 l/m 5,0 km/h (1 Bft) NO 45 11,8 C 17,3 C
31.08.2012 19:46 17,1 C 68 % 1018,9 hPa 0,0 l/m 3,6 km/h (1 Bft) N-NO 22 11,1 C 17,1 C
31.08.2012 19:51 16,9 C 67 % 1018,8 hPa 0,0 l/m 13,0 km/h (3 Bft) N 360 10,7 C 16,9 C
31.08.2012 19:56 16,7 C 67 % 1018,9 hPa 0,0 l/m 2,9 km/h (1 Bft) N-NO 22 10,5 C 16,7 C
31.08.2012 20:01 16,5 C 68 % 1019,1 hPa 0,0 l/m 4,7 km/h (1 Bft) N-NO 22 10,6 C 16,5 C
31.08.2012 20:06 16,4 C 70 % 1019,2 hPa 0,0 l/m 2,5 km/h (1 Bft) NO 45 10,9 C 16,4 C
31.08.2012 20:11 16,2 C 71 % 1019,2 hPa 0,0 l/m 5,8 km/h (2 Bft) N-NW 337 10,9 C 16,2 C
31.08.2012 20:16 16,1 C 73 % 1019,2 hPa 0,0 l/m 3,2 km/h (1 Bft) N-NO 22 11,3 C 16,1 C
31.08.2012 20:21 15,9 C 73 % 1019,3 hPa 0,0 l/m 3,6 km/h (1 Bft) N-NO 22 11,1 C 15,9 C
31.08.2012 20:26 15,8 C 73 % 1019,4 hPa 0,0 l/m 0,0 km/h (0 Bft) N 360 11,0 C 15,8 C
31.08.2012 20:31 15,6 C 73 % 1019,6 hPa 0,0 l/m 2,5 km/h (1 Bft) NW 315 10,8 C 15,6 C
31.08.2012 20:36 15,6 C 73 % 1019,5 hPa 0,0 l/m 1,4 km/h (1 Bft) N-NO 22 10,8 C 15,6 C
31.08.2012 20:41 15,6 C 73 % 1019,6 hPa 0,0 l/m 1,4 km/h (1 Bft) N 360 10,8 C 15,6 C
31.08.2012 20:46 15,5 C 73 % 1019,6 hPa 0,0 l/m 1,1 km/h (1 Bft) N 360 10,7 C 15,5 C
31.08.2012 20:51 15,5 C 74 % 1019,6 hPa 0,0 l/m 2,5 km/h (1 Bft) N-NO 22 10,9 C 15,5 C
31.08.2012 20:56 15,4 C 75 % 1019,6 hPa 0,0 l/m 3,2 km/h (1 Bft) N-NO 22 11,0 C 15,4 C
31.08.2012 21:01 15,4 C 76 % 1019,5 hPa 0,0 l/m 2,5 km/h (1 Bft) N 360 11,2 C 15,4 C
31.08.2012 21:06 15,3 C 76 % 1019,5 hPa 0,0 l/m 6,8 km/h (2 Bft) N-NW 337 11,1 C 15,3 C
31.08.2012 21:11 15,3 C 77 % 1019,7 hPa 0,0 l/m 0,0 km/h (0 Bft) N 360 11,3 C 15,3 C
31.08.2012 21:16 15,3 C 78 % 1019,7 hPa 0,0 l/m 4,3 km/h (1 Bft) N 360 11,5 C 15,3 C
31.08.2012 21:21 15,2 C 79 % 1019,7 hPa 0,0 l/m 3,2 km/h (1 Bft) NO 45 11,6 C 15,2 C
31.08.2012 21:26 15,1 C 79 % 1019,7 hPa 0,0 l/m 0,0 km/h (0 Bft) N-NO 22 11,5 C 15,1 C
31.08.2012 21:31 15,0 C 80 % 1019,9 hPa 0,0 l/m 2,2 km/h (1 Bft) N 360 11,6 C 15,0 C
31.08.2012 21:36 14,9 C 80 % 1020,0 hPa 0,0 l/m 5,4 km/h (1 Bft) N 360 11,5 C 14,9 C
31.08.2012 21:41 14,9 C 81 % 1020,0 hPa 0,0 l/m 2,9 km/h (1 Bft) N 360 11,7 C 14,9 C
31.08.2012 21:46 14,9 C 82 % 1019,8 hPa 0,0 l/m 3,2 km/h (1 Bft) NO 45 11,9 C 14,9 C
31.08.2012 21:51 14,8 C 82 % 1019,8 hPa 0,0 l/m 0,0 km/h (0 Bft) N-NO 22 11,8 C 14,8 C
31.08.2012 21:56 14,7 C 83 % 1019,8 hPa 0,0 l/m 2,2 km/h (1 Bft) NO 45 11,8 C 14,7 C
31.08.2012 22:01 14,6 C 83 % 1020,0 hPa 0,0 l/m 5,8 km/h (2 Bft) N 360 11,7 C 14,6 C
31.08.2012 22:06 14,6 C 84 % 1020,0 hPa 0,0 l/m 3,6 km/h (1 Bft) N-NO 22 11,9 C 14,6 C
31.08.2012 22:11 14,5 C 85 % 1019,9 hPa 0,0 l/m 3,6 km/h (1 Bft) N 360 12,0 C 14,5 C
31.08.2012 22:16 14,4 C 86 % 1020,0 hPa 0,0 l/m 5,4 km/h (1 Bft) N-NW 337 12,1 C 14,4 C
31.08.2012 22:21 14,4 C 86 % 1020,0 hPa 0,0 l/m 3,2 km/h (1 Bft) NO 45 12,1 C 14,4 C
31.08.2012 22:26 14,4 C 86 % 1020,0 hPa 0,0 l/m 5,4 km/h (1 Bft) N-NO 22 12,1 C 14,4 C
31.08.2012 22:31 14,3 C 87 % 1020,0 hPa 0,0 l/m 4,0 km/h (1 Bft) N-NO 22 12,2 C 14,3 C
31.08.2012 22:36 14,3 C 87 % 1019,9 hPa 0,0 l/m 4,0 km/h (1 Bft) N-NO 22 12,2 C 14,3 C
31.08.2012 22:41 14,2 C 87 % 1020,0 hPa 0,0 l/m 4,3 km/h (1 Bft) N 360 12,1 C 14,2 C
31.08.2012 22:46 14,2 C 88 % 1020,0 hPa 0,0 l/m 3,6 km/h (1 Bft) N 360 12,2 C 14,2 C
31.08.2012 22:51 14,1 C 88 % 1020,0 hPa 0,0 l/m 3,2 km/h (1 Bft) N 360 12,1 C 14,1 C
31.08.2012 22:56 14,1 C 88 % 1020,1 hPa 0,0 l/m 6,5 km/h (2 Bft) NW 315 12,1 C 14,1 C
31.08.2012 23:01 14,1 C 88 % 1020,2 hPa 0,0 l/m 1,4 km/h (1 Bft) NO 45 12,1 C 14,1 C
31.08.2012 23:06 14,0 C 87 % 1020,2 hPa 0,0 l/m 2,2 km/h (1 Bft) NW 315 11,9 C 14,0 C
31.08.2012 23:11 13,9 C 87 % 1020,3 hPa 0,0 l/m 0,0 km/h (0 Bft) NW 315 11,8 C 13,9 C
31.08.2012 23:16 13,8 C 87 % 1020,4 hPa 0,0 l/m 0,0 km/h (0 Bft) NW 315 11,7 C 13,8 C
31.08.2012 23:21 13,8 C 87 % 1020,5 hPa 0,0 l/m 1,1 km/h (1 Bft) NW 315 11,7 C 13,8 C
31.08.2012 23:26 13,8 C 87 % 1020,5 hPa 0,0 l/m 3,6 km/h (1 Bft) NW 315 11,7 C 13,8 C
31.08.2012 23:31 13,6 C 87 % 1020,5 hPa 0,0 l/m 0,0 km/h (0 Bft) W-NW 292 11,5 C 13,6 C
31.08.2012 23:36 13,6 C 87 % 1020,7 hPa 0,0 l/m 2,2 km/h (1 Bft) W 270 11,5 C 13,6 C
31.08.2012 23:41 13,6 C 87 % 1020,9 hPa 0,0 l/m 0,0 km/h (0 Bft) W-SW 247 11,5 C 13,6 C
31.08.2012 23:46 13,5 C 87 % 1020,9 hPa 0,0 l/m 2,5 km/h (1 Bft) W-SW 247 11,4 C 13,5 C
31.08.2012 23:51 13,5 C 87 % 1021,0 hPa 0,0 l/m 2,5 km/h (1 Bft) W-NW 292 11,4 C 13,5 C
31.08.2012 23:56 13,4 C 88 % 1021,1 hPa 0,0 l/m 0,0 km/h (0 Bft) W-NW 292 11,5 C 13,4 C
_ Min-Zeit 23:56 16:51 04:41 - 00:01 - - 19:56 23:56
Minimum _ 13,4 C 58 % 1014,9 hPa - 0,0 km/h (0 Bft) - - 10,5 C 13,4 C
_ Max-Zeit 16:11 08:11 23:56 03:11 17:51 - - 11:31 16:11
Maximum _ 21,8 C 91 % 1021,1 hPa 1,6 l/m 18,7 km/h
NO (3 Bft)
- - 15,5 C 21,8 C
Durchschnitt _ 17,1 C 80 % 1016,9 hPa #4,7 l/m 3,4 km/h (1 Bft) N-NO - 13,4 C 17,1 C
(c) by David Heller